Station History

Weather Underground - logo

Station Historical Data
Daily Summary for February 11, 2018 Units:  Both    English   Metric
« Previous Day
Next Day »
Daily Weekly Monthly Yearly Custom
  High: Low: Average:
Temperature: 69.8 °F /  21 °C 40.9 °F /  4.9 °C 53.7 °F /  12.1 °C
Dew Point: 44.9 °F /  7.2 °C 30.9 °F /  -0.6 °C 40 °F /  4.4 °C
Humidity: 91 % 27 % 64 %
Wind Speed: 5.8 mph /  9.3 km/h - 0.8 mph /  1.3 km/h
Wind Gust: 5.8 mph /  9.3 km/h - -
Wind:- - SW
Pressure: 30.02 in /  1016.5 hPa 29.72 in /  1006.3 hPa -
Precipitation: 0.00 in /  0 mm    
Historical Graphs
 
 
Tabular Data for February 11, 2018
Time Temperature Dew Point Pressure Wind Wind Speed Wind Gust Humidity Rainfall Rate (Hourly)
00:00 48.8 °F /  9.3 °C 41.9 °F /  5.5 °C 29.94 in /  1013.8 hPa Calm     77 % 0.00 in /  0 mm
00:05 48.6 °F /  9.2 °C 41.7 °F /  5.4 °C 29.94 in /  1013.8 hPa Calm     77 % 0.00 in /  0 mm
00:10 48.5 °F /  9.2 °C 42.0 °F /  5.6 °C 29.94 in /  1013.8 hPa Calm     78 % 0.00 in /  0 mm
00:15 48.3 °F /  9.1 °C 41.8 °F /  5.4 °C 29.94 in /  1013.8 hPa Calm     78 % 0.00 in /  0 mm
00:20 48.1 °F /  8.9 °C 41.6 °F /  5.3 °C 29.94 in /  1013.8 hPa Calm     78 % 0.00 in /  0 mm
00:25 47.9 °F /  8.8 °C 41.4 °F /  5.2 °C 29.94 in /  1013.8 hPa Calm     78 % 0.00 in /  0 mm
00:30 47.6 °F /  8.7 °C 41.1 °F /  5.1 °C 29.94 in /  1013.8 hPa Calm     78 % 0.00 in /  0 mm
00:35 47.2 °F /  8.4 °C 41.0 °F /  5 °C 29.94 in /  1013.8 hPa Calm     79 % 0.00 in /  0 mm
00:40 46.9 °F /  8.3 °C 41.4 °F /  5.2 °C 29.94 in /  1013.8 hPa Calm     81 % 0.00 in /  0 mm
00:45 46.9 °F /  8.3 °C 41.1 °F /  5.1 °C 29.94 in /  1013.8 hPa Calm     80 % 0.00 in /  0 mm
00:50 46.9 °F /  8.3 °C 41.1 °F /  5.1 °C 29.94 in /  1013.8 hPa Calm     80 % 0.00 in /  0 mm
00:55 46.8 °F /  8.2 °C 41.0 °F /  5 °C 29.94 in /  1013.8 hPa Calm     80 % 0.00 in /  0 mm
01:00 46.4 °F /  8 °C 40.6 °F /  4.8 °C 29.94 in /  1013.8 hPa Calm     80 % 0.00 in /  0 mm
01:05 46.1 °F /  7.8 °C 40.6 °F /  4.8 °C 29.95 in /  1014.1 hPa Calm     81 % 0.00 in /  0 mm
01:10 45.6 °F /  7.6 °C 40.1 °F /  4.5 °C 29.95 in /  1014.1 hPa Calm     81 % 0.00 in /  0 mm
01:15 45.3 °F /  7.4 °C 40.1 °F /  4.5 °C 29.95 in /  1014.1 hPa Calm     82 % 0.00 in /  0 mm
01:20 45.2 °F /  7.3 °C 40.0 °F /  4.4 °C 29.95 in /  1014.1 hPa Calm     82 % 0.00 in /  0 mm
01:25 45.1 °F /  7.3 °C 39.9 °F /  4.4 °C 29.96 in /  1014.4 hPa Calm     82 % 0.00 in /  0 mm
01:30 44.9 °F /  7.2 °C 40.0 °F /  4.4 °C 29.96 in /  1014.4 hPa Calm     83 % 0.00 in /  0 mm
01:35 44.6 °F /  7 °C 39.8 °F /  4.3 °C 29.96 in /  1014.4 hPa Calm     83 % 0.00 in /  0 mm
01:40 44.5 °F /  6.9 °C 40.0 °F /  4.4 °C 29.96 in /  1014.4 hPa Calm     84 % 0.00 in /  0 mm
01:45 44.6 °F /  7 °C 40.1 °F /  4.5 °C 29.96 in /  1014.4 hPa Calm     84 % 0.00 in /  0 mm
01:50 44.6 °F /  7 °C 40.1 °F /  4.5 °C 29.96 in /  1014.4 hPa Calm     84 % 0.00 in /  0 mm
01:55 44.7 °F /  7.1 °C 40.2 °F /  4.6 °C 29.97 in /  1014.8 hPa Calm     84 % 0.00 in /  0 mm
02:00 44.6 °F /  7 °C 40.1 °F /  4.5 °C 29.97 in /  1014.8 hPa Calm     84 % 0.00 in /  0 mm
02:05 44.5 °F /  6.9 °C 40.0 °F /  4.4 °C 29.97 in /  1014.8 hPa Calm     84 % 0.00 in /  0 mm
02:10 44.7 °F /  7.1 °C 40.2 °F /  4.6 °C 29.97 in /  1014.8 hPa Calm     84 % 0.00 in /  0 mm
02:15 44.9 °F /  7.2 °C 40.0 °F /  4.4 °C 29.98 in /  1015.1 hPa NE 1.2 mph /  1.9 km/h 1.2 mph /  1.9 km/h 83 % 0.00 in /  0 mm
02:20 45.2 °F /  7.3 °C 40.3 °F /  4.6 °C 29.98 in /  1015.1 hPa Calm     83 % 0.00 in /  0 mm
02:25 45.5 °F /  7.5 °C 40.3 °F /  4.6 °C 29.98 in /  1015.1 hPa NE 1.2 mph /  1.9 km/h 1.2 mph /  1.9 km/h 82 % 0.00 in /  0 mm
02:30 45.7 °F /  7.6 °C 40.5 °F /  4.7 °C 29.98 in /  1015.1 hPa NE 1.2 mph /  1.9 km/h   82 % 0.00 in /  0 mm
02:35 45.7 °F /  7.6 °C 40.8 °F /  4.9 °C 29.98 in /  1015.1 hPa NE 1.2 mph /  1.9 km/h 1.2 mph /  1.9 km/h 83 % 0.00 in /  0 mm
02:40 45.5 °F /  7.5 °C 40.6 °F /  4.8 °C 29.98 in /  1015.1 hPa NE 1.2 mph /  1.9 km/h   83 % 0.00 in /  0 mm
02:45 45.5 °F /  7.5 °C 40.6 °F /  4.8 °C 29.98 in /  1015.1 hPa Calm     83 % 0.00 in /  0 mm
02:50 45.3 °F /  7.4 °C 40.4 °F /  4.7 °C 29.98 in /  1015.1 hPa Calm     83 % 0.00 in /  0 mm
02:55 45.4 °F /  7.4 °C 40.8 °F /  4.9 °C 29.98 in /  1015.1 hPa NE 1.2 mph /  1.9 km/h   84 % 0.00 in /  0 mm
03:00 45.5 °F /  7.5 °C 41.3 °F /  5.2 °C 29.98 in /  1015.1 hPa Calm     85 % 0.00 in /  0 mm
03:05 45.6 °F /  7.6 °C 41.4 °F /  5.2 °C 29.98 in /  1015.1 hPa ESE 1.2 mph /  1.9 km/h 1.2 mph /  1.9 km/h 85 % 0.00 in /  0 mm
03:10 45.5 °F /  7.5 °C 41.3 °F /  5.2 °C 29.97 in /  1014.8 hPa Calm     85 % 0.00 in /  0 mm
03:15 45.3 °F /  7.4 °C 41.1 °F /  5.1 °C 29.98 in /  1015.1 hPa ESE 2.3 mph /  3.7 km/h 2.3 mph /  3.7 km/h 85 % 0.00 in /  0 mm
03:20 45.3 °F /  7.4 °C 41.1 °F /  5.1 °C 29.97 in /  1014.8 hPa ESE 1.2 mph /  1.9 km/h 1.2 mph /  1.9 km/h 85 % 0.00 in /  0 mm
03:25 45.3 °F /  7.4 °C 40.7 °F /  4.8 °C 29.98 in /  1015.1 hPa ESE 1.2 mph /  1.9 km/h 1.2 mph /  1.9 km/h 84 % 0.00 in /  0 mm
03:30 45.4 °F /  7.4 °C 40.8 °F /  4.9 °C 29.98 in /  1015.1 hPa ESE 1.2 mph /  1.9 km/h 1.2 mph /  1.9 km/h 84 % 0.00 in /  0 mm
03:35 45.4 °F /  7.4 °C 40.8 °F /  4.9 °C 29.99 in /  1015.5 hPa Calm     84 % 0.00 in /  0 mm
03:40 45.2 °F /  7.3 °C 41.0 °F /  5 °C 29.99 in /  1015.5 hPa ESE 1.2 mph /  1.9 km/h   85 % 0.00 in /  0 mm
03:45 45.1 °F /  7.3 °C 40.9 °F /  4.9 °C 30.00 in /  1015.8 hPa ESE 1.2 mph /  1.9 km/h   85 % 0.00 in /  0 mm
03:50 45.1 °F /  7.3 °C 41.2 °F /  5.1 °C 30.00 in /  1015.8 hPa ESE 1.2 mph /  1.9 km/h 1.2 mph /  1.9 km/h 86 % 0.00 in /  0 mm
03:55 45.1 °F /  7.3 °C 40.9 °F /  4.9 °C 30.01 in /  1016.1 hPa Calm     85 % 0.00 in /  0 mm
04:00 45.1 °F /  7.3 °C 40.9 °F /  4.9 °C 30.01 in /  1016.1 hPa Calm     85 % 0.00 in /  0 mm
04:05 45.0 °F /  7.2 °C 40.8 °F /  4.9 °C 30.01 in /  1016.1 hPa ESE 1.2 mph /  1.9 km/h 1.2 mph /  1.9 km/h 85 % 0.00 in /  0 mm
04:10 44.9 °F /  7.2 °C 40.7 °F /  4.8 °C 30.00 in /  1015.8 hPa ESE 1.2 mph /  1.9 km/h   85 % 0.00 in /  0 mm
04:15 44.7 °F /  7.1 °C 40.5 °F /  4.7 °C 30.00 in /  1015.8 hPa ESE 1.2 mph /  1.9 km/h 1.2 mph /  1.9 km/h 85 % 0.00 in /  0 mm
04:21 44.4 °F /  6.9 °C 40.5 °F /  4.7 °C 30.00 in /  1015.8 hPa Calm     86 % 0.00 in /  0 mm
04:26 44.0 °F /  6.7 °C 40.1 °F /  4.5 °C 30.00 in /  1015.8 hPa ESE 1.2 mph /  1.9 km/h   86 % 0.00 in /  0 mm
04:31 43.8 °F /  6.6 °C 40.2 °F /  4.6 °C 30.00 in /  1015.8 hPa ESE 1.2 mph /  1.9 km/h   87 % 0.00 in /  0 mm
04:36 43.8 °F /  6.6 °C 40.2 °F /  4.6 °C 30.00 in /  1015.8 hPa Calm     87 % 0.00 in /  0 mm
04:41 43.9 °F /  6.6 °C 40.3 °F /  4.6 °C 30.01 in /  1016.1 hPa Calm     87 % 0.00 in /  0 mm
04:46 43.9 °F /  6.6 °C 40.3 °F /  4.6 °C 30.01 in /  1016.1 hPa Calm     87 % 0.00 in /  0 mm
04:51 43.7 °F /  6.5 °C 40.1 °F /  4.5 °C 30.01 in /  1016.1 hPa Calm     87 % 0.00 in /  0 mm
04:56 43.5 °F /  6.4 °C 39.9 °F /  4.4 °C 30.01 in /  1016.1 hPa Calm     87 % 0.00 in /  0 mm
05:01 43.3 °F /  6.3 °C 39.7 °F /  4.3 °C 30.01 in /  1016.1 hPa Calm     87 % 0.00 in /  0 mm
05:06 42.9 °F /  6.1 °C 39.3 °F /  4.1 °C 30.01 in /  1016.1 hPa Calm     87 % 0.00 in /  0 mm
05:11 42.7 °F /  5.9 °C 39.4 °F /  4.1 °C 30.00 in /  1015.8 hPa Calm     88 % 0.00 in /  0 mm
05:16 42.6 °F /  5.9 °C 39.3 °F /  4.1 °C 30.00 in /  1015.8 hPa Calm     88 % 0.00 in /  0 mm
05:21 42.5 °F /  5.8 °C 39.5 °F /  4.2 °C 30.00 in /  1015.8 hPa Calm     89 % 0.00 in /  0 mm
05:26 42.7 °F /  5.9 °C 39.7 °F /  4.3 °C 30.00 in /  1015.8 hPa Calm     89 % 0.00 in /  0 mm
05:31 42.7 °F /  5.9 °C 39.4 °F /  4.1 °C 30.00 in /  1015.8 hPa Calm     88 % 0.00 in /  0 mm
05:36 42.7 °F /  5.9 °C 39.7 °F /  4.3 °C 30.00 in /  1015.8 hPa Calm     89 % 0.00 in /  0 mm
05:41 42.8 °F /  6 °C 39.5 °F /  4.2 °C 30.00 in /  1015.8 hPa Calm     88 % 0.00 in /  0 mm
05:46 42.7 °F /  5.9 °C 39.4 °F /  4.1 °C 30.00 in /  1015.8 hPa Calm     88 % 0.00 in /  0 mm
05:51 42.8 °F /  6 °C 39.5 °F /  4.2 °C 30.00 in /  1015.8 hPa Calm     88 % 0.00 in /  0 mm
05:56 42.7 °F /  5.9 °C 39.4 °F /  4.1 °C 30.01 in /  1016.1 hPa ESE 1.2 mph /  1.9 km/h   88 % 0.00 in /  0 mm
06:01 42.5 °F /  5.8 °C 39.2 °F /  4 °C 30.01 in /  1016.1 hPa Calm     88 % 0.00 in /  0 mm
06:06 42.2 °F /  5.7 °C 38.9 °F /  3.8 °C 30.01 in /  1016.1 hPa Calm     88 % 0.00 in /  0 mm
06:11 41.9 °F /  5.5 °C 38.6 °F /  3.7 °C 30.01 in /  1016.1 hPa Calm     88 % 0.00 in /  0 mm
06:16 41.7 °F /  5.4 °C 38.7 °F /  3.7 °C 30.01 in /  1016.1 hPa Calm     89 % 0.00 in /  0 mm
06:21 41.4 °F /  5.2 °C 38.1 °F /  3.4 °C 30.01 in /  1016.1 hPa ESE 1.0 mph /  1.6 km/h   88 % 0.00 in /  0 mm
06:26 41.2 °F /  5.1 °C 38.2 °F /  3.4 °C 30.01 in /  1016.1 hPa Calm     89 % 0.00 in /  0 mm
06:31 41.1 °F /  5.1 °C 38.1 °F /  3.4 °C 30.01 in /  1016.1 hPa Calm     89 % 0.00 in /  0 mm
06:36 41.0 °F /  5 °C 38.3 °F /  3.5 °C 30.02 in /  1016.5 hPa Calm     90 % 0.00 in /  0 mm
06:41 41.0 °F /  5 °C 38.3 °F /  3.5 °C 30.02 in /  1016.5 hPa Calm     90 % 0.00 in /  0 mm
06:46 40.9 °F /  4.9 °C 38.2 °F /  3.4 °C 30.02 in /  1016.5 hPa Calm     90 % 0.00 in /  0 mm
06:51 40.9 °F /  4.9 °C 38.5 °F /  3.6 °C 30.02 in /  1016.5 hPa Calm     91 % 0.00 in /  0 mm
06:56 40.9 °F /  4.9 °C 38.2 °F /  3.4 °C 30.02 in /  1016.5 hPa Calm     90 % 0.00 in /  0 mm
07:01 41.1 °F /  5.1 °C 38.7 °F /  3.7 °C 30.02 in /  1016.5 hPa Calm     91 % 0.00 in /  0 mm
07:06 41.3 °F /  5.2 °C 38.9 °F /  3.8 °C 30.02 in /  1016.5 hPa ESE 1.2 mph /  1.9 km/h 1.2 mph /  1.9 km/h 91 % 0.00 in /  0 mm
07:11 41.7 °F /  5.4 °C 39.0 °F /  3.9 °C 30.02 in /  1016.5 hPa Calm     90 % 0.00 in /  0 mm
07:16 42.2 °F /  5.7 °C 39.5 °F /  4.2 °C 30.01 in /  1016.1 hPa Calm     90 % 0.00 in /  0 mm
07:21 42.5 °F /  5.8 °C 39.5 °F /  4.2 °C 30.01 in /  1016.1 hPa Calm     89 % 0.00 in /  0 mm
07:26 43.0 °F /  6.1 °C 40.0 °F /  4.4 °C 30.01 in /  1016.1 hPa ESE 1.2 mph /  1.9 km/h   89 % 0.00 in /  0 mm
07:31 43.3 °F /  6.3 °C 40.0 °F /  4.4 °C 30.01 in /  1016.1 hPa Calm     88 % 0.00 in /  0 mm
07:36 43.5 °F /  6.4 °C 40.2 °F /  4.6 °C 30.01 in /  1016.1 hPa Calm     88 % 0.00 in /  0 mm
07:41 43.8 °F /  6.6 °C 40.5 °F /  4.7 °C 30.01 in /  1016.1 hPa Calm     88 % 0.00 in /  0 mm
07:46 44.3 °F /  6.8 °C 41.0 °F /  5 °C 30.01 in /  1016.1 hPa Calm     88 % 0.00 in /  0 mm
07:51 45.0 °F /  7.2 °C 41.1 °F /  5.1 °C 30.01 in /  1016.1 hPa Calm     86 % 0.00 in /  0 mm
07:56 45.7 °F /  7.6 °C 41.4 °F /  5.2 °C 30.01 in /  1016.1 hPa Calm     85 % 0.00 in /  0 mm
08:01 46.3 °F /  7.9 °C 42.0 °F /  5.6 °C 30.01 in /  1016.1 hPa Calm     85 % 0.00 in /  0 mm
08:06 47.5 °F /  8.6 °C 42.9 °F /  6.1 °C 30.01 in /  1016.1 hPa Calm     84 % 0.00 in /  0 mm
08:11 48.9 °F /  9.4 °C 43.3 °F /  6.3 °C 30.01 in /  1016.1 hPa Calm     81 % 0.00 in /  0 mm
08:16 50.0 °F /  10 °C 44.1 °F /  6.7 °C 30.00 in /  1015.8 hPa Calm     80 % 0.00 in /  0 mm
08:22 51.0 °F /  10.6 °C 44.0 °F /  6.7 °C 30.00 in /  1015.8 hPa Calm   0.2 mph /  0.3 km/h 77 % 0.00 in /  0 mm
08:27 51.6 °F /  10.9 °C 44.3 °F /  6.8 °C 30.01 in /  1016.1 hPa Calm     76 % 0.00 in /  0 mm
08:32 52.3 °F /  11.3 °C 44.3 °F /  6.8 °C 30.01 in /  1016.1 hPa Calm     74 % 0.00 in /  0 mm
08:37 53.2 °F /  11.8 °C 44.8 °F /  7.1 °C 30.01 in /  1016.1 hPa Calm     73 % 0.00 in /  0 mm
08:42 53.8 °F /  12.1 °C 44.6 °F /  7 °C 30.01 in /  1016.1 hPa Calm     71 % 0.00 in /  0 mm
08:47 54.1 °F /  12.3 °C 44.9 °F /  7.2 °C 30.01 in /  1016.1 hPa SSW 1.2 mph /  1.9 km/h 1.2 mph /  1.9 km/h 71 % 0.00 in /  0 mm
08:52 54.4 °F /  12.4 °C 44.8 °F /  7.1 °C 30.01 in /  1016.1 hPa Calm     70 % 0.00 in /  0 mm
08:57 54.9 °F /  12.7 °C 44.1 °F /  6.7 °C 30.01 in /  1016.1 hPa SE 2.0 mph /  3.2 km/h 2.0 mph /  3.2 km/h 67 % 0.00 in /  0 mm
09:02 55.2 °F /  12.9 °C 44.0 °F /  6.7 °C 30.01 in /  1016.1 hPa Calm     66 % 0.00 in /  0 mm
09:07 55.6 °F /  13.1 °C 44.4 °F /  6.9 °C 30.00 in /  1015.8 hPa Calm     66 % 0.00 in /  0 mm
09:12 55.7 °F /  13.2 °C 43.7 °F /  6.5 °C 30.00 in /  1015.8 hPa Calm     64 % 0.00 in /  0 mm
09:17 56.5 °F /  13.6 °C 44.9 °F /  7.2 °C 30.00 in /  1015.8 hPa Calm     65 % 0.00 in /  0 mm
09:22 57.0 °F /  13.9 °C 44.1 °F /  6.7 °C 30.00 in /  1015.8 hPa Calm     62 % 0.00 in /  0 mm
09:27 57.6 °F /  14.2 °C 44.2 °F /  6.8 °C 29.99 in /  1015.5 hPa Calm     61 % 0.00 in /  0 mm
09:32 58.0 °F /  14.4 °C 44.2 °F /  6.8 °C 29.99 in /  1015.5 hPa Calm     60 % 0.00 in /  0 mm
09:37 58.5 °F /  14.7 °C 43.8 °F /  6.6 °C 29.99 in /  1015.5 hPa SSW 1.2 mph /  1.9 km/h 1.2 mph /  1.9 km/h 58 % 0.00 in /  0 mm
09:42 58.6 °F /  14.8 °C 43.4 °F /  6.3 °C 29.99 in /  1015.5 hPa ENE 2.3 mph /  3.7 km/h 2.3 mph /  3.7 km/h 57 % 0.00 in /  0 mm
09:47 58.5 °F /  14.7 °C 42.4 °F /  5.8 °C 29.99 in /  1015.5 hPa Calm     55 % 0.00 in /  0 mm
09:52 59.0 °F /  15 °C 43.8 °F /  6.6 °C 29.99 in /  1015.5 hPa SE 1.2 mph /  1.9 km/h   57 % 0.00 in /  0 mm
09:57 59.6 °F /  15.3 °C 42.9 °F /  6.1 °C 29.98 in /  1015.1 hPa West 1.2 mph /  1.9 km/h 1.2 mph /  1.9 km/h 54 % 0.00 in /  0 mm
10:02 59.8 °F /  15.4 °C 43.6 °F /  6.4 °C 29.98 in /  1015.1 hPa Calm     55 % 0.00 in /  0 mm
10:07 60.6 °F /  15.9 °C 43.9 °F /  6.6 °C 29.98 in /  1015.1 hPa East 2.0 mph /  3.2 km/h 2.0 mph /  3.2 km/h 54 % 0.00 in /  0 mm
10:12 60.4 °F /  15.8 °C 43.2 °F /  6.2 °C 29.98 in /  1015.1 hPa WNW 3.5 mph /  5.6 km/h 3.5 mph /  5.6 km/h 53 % 0.00 in /  0 mm
10:17 60.1 °F /  15.6 °C 42.9 °F /  6.1 °C 29.99 in /  1015.5 hPa NW 1.2 mph /  1.9 km/h   53 % 0.00 in /  0 mm
10:22 60.5 °F /  15.8 °C 43.8 °F /  6.6 °C 29.98 in /  1015.1 hPa SSE 1.2 mph /  1.9 km/h 1.2 mph /  1.9 km/h 54 % 0.00 in /  0 mm
10:27 61.1 °F /  16.2 °C 43.3 °F /  6.3 °C 29.98 in /  1015.1 hPa NW 1.2 mph /  1.9 km/h 1.2 mph /  1.9 km/h 52 % 0.00 in /  0 mm
10:32 61.2 °F /  16.2 °C 42.9 °F /  6.1 °C 29.98 in /  1015.1 hPa Calm     51 % 0.00 in /  0 mm
10:37 61.3 °F /  16.3 °C 43.5 °F /  6.4 °C 29.97 in /  1014.8 hPa Calm     52 % 0.00 in /  0 mm
10:42 61.8 °F /  16.6 °C 43.5 °F /  6.4 °C 29.97 in /  1014.8 hPa NW 1.2 mph /  1.9 km/h   51 % 0.00 in /  0 mm
10:47 61.6 °F /  16.4 °C 42.2 °F /  5.7 °C 29.97 in /  1014.8 hPa Calm     49 % 0.00 in /  0 mm
10:52 61.5 °F /  16.4 °C 42.2 °F /  5.7 °C 29.97 in /  1014.8 hPa NNW 3.5 mph /  5.6 km/h 3.5 mph /  5.6 km/h 49 % 0.00 in /  0 mm
10:57 61.8 °F /  16.6 °C 41.9 °F /  5.5 °C 29.96 in /  1014.4 hPa NW 1.2 mph /  1.9 km/h 1.2 mph /  1.9 km/h 48 % 0.00 in /  0 mm
11:02 62.1 °F /  16.7 °C 42.2 °F /  5.7 °C 29.96 in /  1014.4 hPa West 1.2 mph /  1.9 km/h   48 % 0.00 in /  0 mm
11:07 62.6 °F /  17 °C 43.7 °F /  6.5 °C 29.97 in /  1014.8 hPa NW 1.2 mph /  1.9 km/h   50 % 0.00 in /  0 mm
11:12 63.2 °F /  17.3 °C 41.5 °F /  5.3 °C 29.97 in /  1014.8 hPa NW 1.2 mph /  1.9 km/h   45 % 0.00 in /  0 mm
11:15 63.1 °F /  17.3 °C 41.4 °F /  5.2 °C 29.97 in /  1014.8 hPa Calm     45 % 0.00 in /  0 mm
11:20 63.1 °F /  17.3 °C 40.2 °F /  4.6 °C 29.97 in /  1014.8 hPa Calm     43 % 0.00 in /  0 mm
11:25 63.5 °F /  17.5 °C 41.8 °F /  5.4 °C 29.96 in /  1014.4 hPa SW 1.2 mph /  1.9 km/h 1.2 mph /  1.9 km/h 45 % 0.00 in /  0 mm
11:30 64.3 °F /  17.9 °C 41.3 °F /  5.2 °C 29.95 in /  1014.1 hPa ESE 1.0 mph /  1.6 km/h   43 % 0.00 in /  0 mm
11:35 64.9 °F /  18.3 °C 40.6 °F /  4.8 °C 29.95 in /  1014.1 hPa SE 2.3 mph /  3.7 km/h 2.3 mph /  3.7 km/h 41 % 0.00 in /  0 mm
11:40 65.4 °F /  18.6 °C 37.7 °F /  3.2 °C 29.95 in /  1014.1 hPa Calm   0.3 mph /  0.5 km/h 36 % 0.00 in /  0 mm
11:45 65.3 °F /  18.5 °C 36.2 °F /  2.3 °C 29.94 in /  1013.8 hPa NW 1.2 mph /  1.9 km/h 1.2 mph /  1.9 km/h 34 % 0.00 in /  0 mm
11:50 65.5 °F /  18.6 °C 37.8 °F /  3.2 °C 29.93 in /  1013.4 hPa Calm     36 % 0.00 in /  0 mm
11:55 65.8 °F /  18.8 °C 35.1 °F /  1.7 °C 29.93 in /  1013.4 hPa ENE 1.2 mph /  1.9 km/h   32 % 0.00 in /  0 mm
12:00 65.5 °F /  18.6 °C 34.8 °F /  1.6 °C 29.92 in /  1013.1 hPa Calm     32 % 0.00 in /  0 mm
12:05 66.0 °F /  18.9 °C 33.7 °F /  0.9 °C 29.92 in /  1013.1 hPa NW 2.3 mph /  3.7 km/h 2.3 mph /  3.7 km/h 30 % 0.00 in /  0 mm
12:10 66.2 °F /  19 °C 33.0 °F /  0.6 °C 29.92 in /  1013.1 hPa NNW 3.5 mph /  5.6 km/h 3.5 mph /  5.6 km/h 29 % 0.00 in /  0 mm
12:15 65.9 °F /  18.8 °C 30.9 °F /  -0.6 °C 29.91 in /  1012.8 hPa NW 2.3 mph /  3.7 km/h 2.3 mph /  3.7 km/h 27 % 0.00 in /  0 mm
12:20 65.9 °F /  18.8 °C 33.6 °F /  0.9 °C 29.90 in /  1012.4 hPa Calm     30 % 0.00 in /  0 mm
12:25 66.1 °F /  18.9 °C 31.1 °F /  -0.5 °C 29.90 in /  1012.4 hPa NW 2.3 mph /  3.7 km/h 2.3 mph /  3.7 km/h 27 % 0.00 in /  0 mm
12:30 66.4 °F /  19.1 °C 33.2 °F /  0.7 °C 29.90 in /  1012.4 hPa Calm     29 % 0.00 in /  0 mm
12:35 66.8 °F /  19.3 °C 36.0 °F /  2.2 °C 29.89 in /  1012.1 hPa SSW 2.3 mph /  3.7 km/h 2.3 mph /  3.7 km/h 32 % 0.00 in /  0 mm
12:40 67.6 °F /  19.8 °C 35.0 °F /  1.7 °C 29.89 in /  1012.1 hPa West 1.2 mph /  1.9 km/h 1.2 mph /  1.9 km/h 30 % 0.00 in /  0 mm
12:45 67.5 °F /  19.7 °C 34.1 °F /  1.2 °C 29.88 in /  1011.7 hPa West 1.2 mph /  1.9 km/h   29 % 0.00 in /  0 mm
12:50 67.6 °F /  19.8 °C 35.0 °F /  1.7 °C 29.89 in /  1012.1 hPa NW 2.0 mph /  3.2 km/h 2.0 mph /  3.2 km/h 30 % 0.00 in /  0 mm
12:55 67.9 °F /  19.9 °C 35.3 °F /  1.8 °C 29.89 in /  1012.1 hPa NE 2.3 mph /  3.7 km/h 2.3 mph /  3.7 km/h 30 % 0.00 in /  0 mm
13:00 68.2 °F /  20.1 °C 33.8 °F /  1 °C 29.89 in /  1012.1 hPa NW 1.2 mph /  1.9 km/h   28 % 0.00 in /  0 mm
13:05 68.1 °F /  20.1 °C 34.6 °F /  1.4 °C 29.88 in /  1011.7 hPa North 5.8 mph /  9.3 km/h 5.8 mph /  9.3 km/h 29 % 0.00 in /  0 mm
13:10 68.2 °F /  20.1 °C 35.6 °F /  2 °C 29.88 in /  1011.7 hPa NW 3.5 mph /  5.6 km/h 3.5 mph /  5.6 km/h 30 % 0.00 in /  0 mm
13:15 68.2 °F /  20.1 °C 35.6 °F /  2 °C 29.88 in /  1011.7 hPa NW 2.0 mph /  3.2 km/h 2.0 mph /  3.2 km/h 30 % 0.00 in /  0 mm
13:20 68.5 °F /  20.3 °C 37.5 °F /  3.1 °C 29.87 in /  1011.4 hPa NW 3.5 mph /  5.6 km/h 3.5 mph /  5.6 km/h 32 % 0.00 in /  0 mm
13:25 68.8 °F /  20.4 °C 36.1 °F /  2.3 °C 29.87 in /  1011.4 hPa NW 1.2 mph /  1.9 km/h 1.3 mph /  2.1 km/h 30 % 0.00 in /  0 mm
13:30 68.9 °F /  20.5 °C 35.3 °F /  1.8 °C 29.87 in /  1011.4 hPa West 3.5 mph /  5.6 km/h 3.5 mph /  5.6 km/h 29 % 0.00 in /  0 mm
13:35 69.1 °F /  20.6 °C 36.3 °F /  2.4 °C 29.86 in /  1011.1 hPa NNW 3.0 mph /  4.8 km/h 3.0 mph /  4.8 km/h 30 % 0.00 in /  0 mm
13:40 69.3 °F /  20.7 °C 37.3 °F /  2.9 °C 29.86 in /  1011.1 hPa WNW 1.2 mph /  1.9 km/h 1.2 mph /  1.9 km/h 31 % 0.00 in /  0 mm
13:45 69.5 °F /  20.8 °C 36.7 °F /  2.6 °C 29.86 in /  1011.1 hPa NNW 3.0 mph /  4.8 km/h 3.0 mph /  4.8 km/h 30 % 0.00 in /  0 mm
13:50 69.8 °F /  21 °C 37.8 °F /  3.2 °C 29.85 in /  1010.7 hPa NW 2.3 mph /  3.7 km/h 2.3 mph /  3.7 km/h 31 % 0.00 in /  0 mm
13:55 69.7 °F /  20.9 °C 39.3 °F /  4.1 °C 29.85 in /  1010.7 hPa NW 3.5 mph /  5.6 km/h 3.5 mph /  5.6 km/h 33 % 0.00 in /  0 mm
14:00 69.5 °F /  20.8 °C 39.9 °F /  4.4 °C 29.84 in /  1010.4 hPa WNW 3.5 mph /  5.6 km/h 3.5 mph /  5.6 km/h 34 % 0.00 in /  0 mm
14:05 69.6 °F /  20.9 °C 40.7 °F /  4.8 °C 29.83 in /  1010 hPa NW 3.0 mph /  4.8 km/h 3.0 mph /  4.8 km/h 35 % 0.00 in /  0 mm
14:10 69.6 °F /  20.9 °C 41.5 °F /  5.3 °C 29.83 in /  1010 hPa WNW 2.3 mph /  3.7 km/h 2.3 mph /  3.7 km/h 36 % 0.00 in /  0 mm
14:29 69.7 °F /  20.9 °C 40.8 °F /  4.9 °C 29.81 in /  1009.4 hPa NW 2.3 mph /  3.7 km/h 2.3 mph /  3.7 km/h 35 % 0.00 in /  0 mm
14:48 69.5 °F /  20.8 °C 40.6 °F /  4.8 °C 29.80 in /  1009 hPa NNE 3.5 mph /  5.6 km/h 3.5 mph /  5.6 km/h 35 % 0.00 in /  0 mm
14:53 69.4 °F /  20.8 °C 40.5 °F /  4.7 °C 29.79 in /  1008.7 hPa Calm     35 % 0.00 in /  0 mm
14:58 69.2 °F /  20.7 °C 39.6 °F /  4.2 °C 29.78 in /  1008.4 hPa WSW 1.2 mph /  1.9 km/h   34 % 0.00 in /  0 mm
15:03 69.0 °F /  20.6 °C 40.9 °F /  4.9 °C 29.77 in /  1008 hPa Calm     36 % 0.00 in /  0 mm
15:08 68.9 °F /  20.5 °C 42.2 °F /  5.7 °C 29.76 in /  1007.7 hPa SE 1.2 mph /  1.9 km/h   38 % 0.00 in /  0 mm
15:13 68.6 °F /  20.3 °C 42.6 °F /  5.9 °C 29.74 in /  1007 hPa SE 1.2 mph /  1.9 km/h   39 % 0.00 in /  0 mm
15:18 68.1 °F /  20.1 °C 42.2 °F /  5.7 °C 29.74 in /  1007 hPa Calm     39 % 0.00 in /  0 mm
15:23 67.7 °F /  19.8 °C 42.5 °F /  5.8 °C 29.76 in /  1007.7 hPa SE 1.0 mph /  1.6 km/h 1.0 mph /  1.6 km/h 40 % 0.00 in /  0 mm
15:28 67.4 °F /  19.7 °C 42.2 °F /  5.7 °C 29.77 in /  1008 hPa NW 2.3 mph /  3.7 km/h 2.3 mph /  3.7 km/h 40 % 0.00 in /  0 mm
15:33 67.2 °F /  19.6 °C 42.7 °F /  5.9 °C 29.77 in /  1008 hPa WNW 1.2 mph /  1.9 km/h 1.2 mph /  1.9 km/h 41 % 0.00 in /  0 mm
15:38 66.9 °F /  19.4 °C 42.4 °F /  5.8 °C 29.77 in /  1008 hPa Calm     41 % 0.00 in /  0 mm
15:43 66.8 °F /  19.3 °C 41.0 °F /  5 °C 29.77 in /  1008 hPa WNW 3.5 mph /  5.6 km/h 3.5 mph /  5.6 km/h 39 % 0.00 in /  0 mm
15:48 66.4 °F /  19.1 °C 39.3 °F /  4.1 °C 29.78 in /  1008.4 hPa NNW 2.3 mph /  3.7 km/h 2.3 mph /  3.7 km/h 37 % 0.00 in /  0 mm
15:53 66.1 °F /  18.9 °C 38.4 °F /  3.6 °C 29.78 in /  1008.4 hPa NNW 5.0 mph /  8 km/h 5.0 mph /  8 km/h 36 % 0.00 in /  0 mm
15:58 65.8 °F /  18.8 °C 36.6 °F /  2.6 °C 29.78 in /  1008.4 hPa NNW 2.0 mph /  3.2 km/h 2.0 mph /  3.2 km/h 34 % 0.00 in /  0 mm
16:03 65.7 °F /  18.7 °C 36.5 °F /  2.5 °C 29.78 in /  1008.4 hPa NW 2.0 mph /  3.2 km/h 2.0 mph /  3.2 km/h 34 % 0.00 in /  0 mm
16:08 65.6 °F /  18.7 °C 36.5 °F /  2.5 °C 29.79 in /  1008.7 hPa West 2.3 mph /  3.7 km/h 2.3 mph /  3.7 km/h 34 % 0.00 in /  0 mm
16:13 65.6 °F /  18.7 °C 35.7 °F /  2.1 °C 29.78 in /  1008.4 hPa SSW 3.5 mph /  5.6 km/h 3.5 mph /  5.6 km/h 33 % 0.00 in /  0 mm
16:18 65.5 °F /  18.6 °C 36.4 °F /  2.4 °C 29.79 in /  1008.7 hPa West 1.2 mph /  1.9 km/h 1.2 mph /  1.9 km/h 34 % 0.00 in /  0 mm
16:23 65.3 °F /  18.5 °C 36.9 °F /  2.7 °C 29.78 in /  1008.4 hPa WNW 2.3 mph /  3.7 km/h 2.3 mph /  3.7 km/h 35 % 0.00 in /  0 mm
16:28 65.1 °F /  18.4 °C 36.8 °F /  2.7 °C 29.78 in /  1008.4 hPa WNW 3.5 mph /  5.6 km/h 3.5 mph /  5.6 km/h 35 % 0.00 in /  0 mm
16:33 64.6 °F /  18.1 °C 36.3 °F /  2.4 °C 29.78 in /  1008.4 hPa Calm   0.1 mph /  0.2 km/h 35 % 0.00 in /  0 mm
16:38 64.1 °F /  17.8 °C 36.6 °F /  2.6 °C 29.77 in /  1008 hPa Calm     36 % 0.00 in /  0 mm
16:43 63.7 °F /  17.6 °C 36.2 °F /  2.3 °C 29.77 in /  1008 hPa Calm     36 % 0.00 in /  0 mm
16:48 63.4 °F /  17.4 °C 37.3 °F /  2.9 °C 29.78 in /  1008.4 hPa NW 1.2 mph /  1.9 km/h   38 % 0.00 in /  0 mm
16:53 63.1 °F /  17.3 °C 37.1 °F /  2.8 °C 29.77 in /  1008 hPa Calm     38 % 0.00 in /  0 mm
16:58 62.9 °F /  17.2 °C 36.9 °F /  2.7 °C 29.77 in /  1008 hPa Calm     38 % 0.00 in /  0 mm
17:03 62.8 °F /  17.1 °C 36.8 °F /  2.7 °C 29.76 in /  1007.7 hPa Calm     38 % 0.00 in /  0 mm
17:08 62.5 °F /  16.9 °C 39.1 °F /  3.9 °C 29.76 in /  1007.7 hPa Calm     42 % 0.00 in /  0 mm
17:13 62.1 °F /  16.7 °C 38.7 °F /  3.7 °C 29.76 in /  1007.7 hPa Calm     42 % 0.00 in /  0 mm
17:18 61.6 °F /  16.4 °C 41.2 °F /  5.1 °C 29.76 in /  1007.7 hPa Calm     47 % 0.00 in /  0 mm
17:23 61.1 °F /  16.2 °C 41.8 °F /  5.4 °C 29.76 in /  1007.7 hPa Calm     49 % 0.00 in /  0 mm
17:28 60.5 °F /  15.8 °C 40.7 °F /  4.8 °C 29.76 in /  1007.7 hPa Calm     48 % 0.00 in /  0 mm
17:34 60.0 °F /  15.6 °C 40.8 °F /  4.9 °C 29.76 in /  1007.7 hPa NNW 1.2 mph /  1.9 km/h   49 % 0.00 in /  0 mm
17:39 59.6 °F /  15.3 °C 40.4 °F /  4.7 °C 29.75 in /  1007.3 hPa Calm     49 % 0.00 in /  0 mm
17:44 59.1 °F /  15.1 °C 41.5 °F /  5.3 °C 29.74 in /  1007 hPa SE 1.2 mph /  1.9 km/h   52 % 0.00 in /  0 mm
17:49 58.5 °F /  14.7 °C 41.4 °F /  5.2 °C 29.73 in /  1006.7 hPa ESE 1.2 mph /  1.9 km/h 1.2 mph /  1.9 km/h 53 % 0.00 in /  0 mm
17:54 58.1 °F /  14.5 °C 40.6 °F /  4.8 °C 29.72 in /  1006.3 hPa ESE 1.2 mph /  1.9 km/h 1.2 mph /  1.9 km/h 52 % 0.00 in /  0 mm
17:59 58.0 °F /  14.4 °C 39.5 °F /  4.2 °C 29.73 in /  1006.7 hPa Calm     50 % 0.00 in /  0 mm
18:04 58.0 °F /  14.4 °C 40.0 °F /  4.4 °C 29.73 in /  1006.7 hPa Calm     51 % 0.00 in /  0 mm
18:09 58.1 °F /  14.5 °C 39.5 °F /  4.2 °C 29.73 in /  1006.7 hPa Calm     50 % 0.00 in /  0 mm
18:14 58.1 °F /  14.5 °C 40.6 °F /  4.8 °C 29.74 in /  1007 hPa Calm     52 % 0.00 in /  0 mm
18:19 57.9 °F /  14.4 °C 40.9 °F /  4.9 °C 29.74 in /  1007 hPa Calm     53 % 0.00 in /  0 mm
18:24 57.3 °F /  14.1 °C 41.3 °F /  5.2 °C 29.74 in /  1007 hPa Calm     55 % 0.00 in /  0 mm
18:29 56.8 °F /  13.8 °C 41.3 °F /  5.2 °C 29.74 in /  1007 hPa Calm     56 % 0.00 in /  0 mm
18:34 56.3 °F /  13.5 °C 40.8 °F /  4.9 °C 29.74 in /  1007 hPa Calm     56 % 0.00 in /  0 mm
18:39 56.0 °F /  13.3 °C 41.9 °F /  5.5 °C 29.74 in /  1007 hPa SE 1.2 mph /  1.9 km/h 1.2 mph /  1.9 km/h 59 % 0.00 in /  0 mm
18:44 55.5 °F /  13.1 °C 41.4 °F /  5.2 °C 29.74 in /  1007 hPa Calm     59 % 0.00 in /  0 mm
18:49 54.7 °F /  12.6 °C 41.9 °F /  5.5 °C 29.74 in /  1007 hPa Calm     62 % 0.00 in /  0 mm
18:54 54.0 °F /  12.2 °C 40.8 °F /  4.9 °C 29.73 in /  1006.7 hPa Calm     61 % 0.00 in /  0 mm
18:59 53.9 °F /  12.2 °C 40.3 °F /  4.6 °C 29.73 in /  1006.7 hPa Calm     60 % 0.00 in /  0 mm
19:04 53.8 °F /  12.1 °C 40.2 °F /  4.6 °C 29.73 in /  1006.7 hPa SE 1.2 mph /  1.9 km/h   60 % 0.00 in /  0 mm
19:09 53.4 °F /  11.9 °C 40.3 °F /  4.6 °C 29.73 in /  1006.7 hPa Calm     61 % 0.00 in /  0 mm
19:14 52.8 °F /  11.6 °C 40.5 °F /  4.7 °C 29.73 in /  1006.7 hPa Calm     63 % 0.00 in /  0 mm
19:19 52.4 °F /  11.3 °C 40.2 °F /  4.6 °C 29.73 in /  1006.7 hPa Calm     63 % 0.00 in /  0 mm
19:24 52.1 °F /  11.2 °C 39.9 °F /  4.4 °C 29.74 in /  1007 hPa Calm     63 % 0.00 in /  0 mm
19:29 52.0 °F /  11.1 °C 40.2 °F /  4.6 °C 29.74 in /  1007 hPa Calm     64 % 0.00 in /  0 mm
19:34 51.7 °F /  10.9 °C 39.9 °F /  4.4 °C 29.74 in /  1007 hPa Calm     64 % 0.00 in /  0 mm
19:39 51.7 °F /  10.9 °C 40.3 °F /  4.6 °C 29.74 in /  1007 hPa Calm     65 % 0.00 in /  0 mm
19:44 51.7 °F /  10.9 °C 39.9 °F /  4.4 °C 29.75 in /  1007.3 hPa Calm     64 % 0.00 in /  0 mm
19:49 51.5 °F /  10.8 °C 40.9 °F /  4.9 °C 29.75 in /  1007.3 hPa Calm     67 % 0.00 in /  0 mm
19:54 51.3 °F /  10.7 °C 40.3 °F /  4.6 °C 29.75 in /  1007.3 hPa Calm     66 % 0.00 in /  0 mm
19:59 51.0 °F /  10.6 °C 40.4 °F /  4.7 °C 29.75 in /  1007.3 hPa Calm     67 % 0.00 in /  0 mm
20:04 51.0 °F /  10.6 °C 41.2 °F /  5.1 °C 29.76 in /  1007.7 hPa Calm     69 % 0.00 in /  0 mm
20:09 50.9 °F /  10.5 °C 40.3 °F /  4.6 °C 29.76 in /  1007.7 hPa SSE 1.0 mph /  1.6 km/h   67 % 0.00 in /  0 mm
20:14 51.0 °F /  10.6 °C 39.6 °F /  4.2 °C 29.76 in /  1007.7 hPa SE 1.2 mph /  1.9 km/h 1.2 mph /  1.9 km/h 65 % 0.00 in /  0 mm
20:19 50.9 °F /  10.5 °C 39.9 °F /  4.4 °C 29.77 in /  1008 hPa East 1.2 mph /  1.9 km/h 1.2 mph /  1.9 km/h 66 % 0.00 in /  0 mm
20:24 50.7 °F /  10.4 °C 39.7 °F /  4.3 °C 29.77 in /  1008 hPa Calm     66 % 0.00 in /  0 mm
20:29 50.8 °F /  10.4 °C 39.5 °F /  4.2 °C 29.78 in /  1008.4 hPa NW 3.5 mph /  5.6 km/h 3.5 mph /  5.6 km/h 65 % 0.00 in /  0 mm
20:34 51.3 °F /  10.7 °C 39.5 °F /  4.2 °C 29.78 in /  1008.4 hPa NW 2.3 mph /  3.7 km/h 2.3 mph /  3.7 km/h 64 % 0.00 in /  0 mm
20:39 51.8 °F /  11 °C 38.8 °F /  3.8 °C 29.78 in /  1008.4 hPa WNW 1.2 mph /  1.9 km/h 1.2 mph /  1.9 km/h 61 % 0.00 in /  0 mm
20:44 52.6 °F /  11.4 °C 38.7 °F /  3.7 °C 29.78 in /  1008.4 hPa NW 4.6 mph /  7.4 km/h 4.6 mph /  7.4 km/h 59 % 0.00 in /  0 mm
20:49 53.3 °F /  11.8 °C 38.9 °F /  3.8 °C 29.78 in /  1008.4 hPa NW 3.5 mph /  5.6 km/h 3.5 mph /  5.6 km/h 58 % 0.00 in /  0 mm
20:54 53.6 °F /  12 °C 39.2 °F /  4 °C 29.77 in /  1008 hPa NW 1.2 mph /  1.9 km/h 1.2 mph /  1.9 km/h 58 % 0.00 in /  0 mm
20:59 53.7 °F /  12.1 °C 38.8 °F /  3.8 °C 29.78 in /  1008.4 hPa NW 3.5 mph /  5.6 km/h 3.5 mph /  5.6 km/h 57 % 0.00 in /  0 mm
21:04 53.7 °F /  12.1 °C 38.8 °F /  3.8 °C 29.78 in /  1008.4 hPa Calm     57 % 0.00 in /  0 mm
21:09 53.4 °F /  11.9 °C 38.5 °F /  3.6 °C 29.78 in /  1008.4 hPa NW 1.2 mph /  1.9 km/h 1.2 mph /  1.9 km/h 57 % 0.00 in /  0 mm
21:14 53.2 °F /  11.8 °C 38.8 °F /  3.8 °C 29.78 in /  1008.4 hPa NNW 1.2 mph /  1.9 km/h 1.2 mph /  1.9 km/h 58 % 0.00 in /  0 mm
21:19 53.0 °F /  11.7 °C 38.6 °F /  3.7 °C 29.78 in /  1008.4 hPa Calm     58 % 0.00 in /  0 mm
21:24 52.4 °F /  11.3 °C 38.9 °F /  3.8 °C 29.79 in /  1008.7 hPa Calm     60 % 0.00 in /  0 mm
21:29 51.7 °F /  10.9 °C 39.1 °F /  3.9 °C 29.79 in /  1008.7 hPa Calm     62 % 0.00 in /  0 mm
21:34 51.0 °F /  10.6 °C 38.8 °F /  3.8 °C 29.79 in /  1008.7 hPa Calm     63 % 0.00 in /  0 mm
21:39 50.8 °F /  10.4 °C 39.1 °F /  3.9 °C 29.80 in /  1009 hPa Calm   0.2 mph /  0.3 km/h 64 % 0.00 in /  0 mm
21:44 50.8 °F /  10.4 °C 39.1 °F /  3.9 °C 29.80 in /  1009 hPa NW 1.2 mph /  1.9 km/h 1.2 mph /  1.9 km/h 64 % 0.00 in /  0 mm
21:49 50.7 °F /  10.4 °C 39.0 °F /  3.9 °C 29.80 in /  1009 hPa NW 2.0 mph /  3.2 km/h 2.0 mph /  3.2 km/h 64 % 0.00 in /  0 mm
21:54 51.1 °F /  10.6 °C 39.3 °F /  4.1 °C 29.80 in /  1009 hPa WNW 5.0 mph /  8 km/h 5.0 mph /  8 km/h 64 % 0.00 in /  0 mm
21:59 51.6 °F /  10.9 °C 39.4 °F /  4.1 °C 29.80 in /  1009 hPa WNW 3.5 mph /  5.6 km/h 3.5 mph /  5.6 km/h 63 % 0.00 in /  0 mm
22:04 51.8 °F /  11 °C 39.6 °F /  4.2 °C 29.80 in /  1009 hPa WNW 3.5 mph /  5.6 km/h 3.5 mph /  5.6 km/h 63 % 0.00 in /  0 mm
22:09 52.0 °F /  11.1 °C 39.8 °F /  4.3 °C 29.81 in /  1009.4 hPa NW 3.5 mph /  5.6 km/h 3.5 mph /  5.6 km/h 63 % 0.00 in /  0 mm
22:14 51.9 °F /  11.1 °C 40.1 °F /  4.5 °C 29.81 in /  1009.4 hPa NW 3.5 mph /  5.6 km/h 3.5 mph /  5.6 km/h 64 % 0.00 in /  0 mm
22:19 51.6 °F /  10.9 °C 39.8 °F /  4.3 °C 29.81 in /  1009.4 hPa NW 1.2 mph /  1.9 km/h 1.2 mph /  1.9 km/h 64 % 0.00 in /  0 mm
22:24 51.3 °F /  10.7 °C 39.9 °F /  4.4 °C 29.81 in /  1009.4 hPa WNW 1.2 mph /  1.9 km/h 1.2 mph /  1.9 km/h 65 % 0.00 in /  0 mm
22:29 51.0 °F /  10.6 °C 40.0 °F /  4.4 °C 29.81 in /  1009.4 hPa WNW 1.2 mph /  1.9 km/h 1.2 mph /  1.9 km/h 66 % 0.00 in /  0 mm
22:34 50.7 °F /  10.4 °C 40.1 °F /  4.5 °C 29.82 in /  1009.7 hPa Calm   0.1 mph /  0.2 km/h 67 % 0.00 in /  0 mm
22:39 50.4 °F /  10.2 °C 39.9 °F /  4.4 °C 29.82 in /  1009.7 hPa Calm     67 % 0.00 in /  0 mm
22:44 50.0 °F /  10 °C 39.8 °F /  4.3 °C 29.82 in /  1009.7 hPa Calm     68 % 0.00 in /  0 mm
22:49 49.6 °F /  9.8 °C 40.2 °F /  4.6 °C 29.83 in /  1010 hPa Calm     70 % 0.00 in /  0 mm
22:54 49.0 °F /  9.4 °C 40.4 °F /  4.7 °C 29.83 in /  1010 hPa Calm     72 % 0.00 in /  0 mm
22:59 48.3 °F /  9.1 °C 40.0 °F /  4.4 °C 29.83 in /  1010 hPa Calm     73 % 0.00 in /  0 mm
23:04 47.7 °F /  8.7 °C 39.8 °F /  4.3 °C 29.84 in /  1010.4 hPa Calm     74 % 0.00 in /  0 mm
23:09 47.0 °F /  8.3 °C 39.8 °F /  4.3 °C 29.84 in /  1010.4 hPa Calm     76 % 0.00 in /  0 mm
23:14 46.5 °F /  8.1 °C 39.7 °F /  4.3 °C 29.84 in /  1010.4 hPa Calm   0.6 mph /  1 km/h 77 % 0.00 in /  0 mm
23:19 46.1 °F /  7.8 °C 39.6 °F /  4.2 °C 29.85 in /  1010.7 hPa Calm     78 % 0.00 in /  0 mm
23:24 45.9 °F /  7.7 °C 39.4 °F /  4.1 °C 29.85 in /  1010.7 hPa Calm     78 % 0.00 in /  0 mm
23:29 45.7 °F /  7.6 °C 39.2 °F /  4 °C 29.85 in /  1010.7 hPa Calm     78 % 0.00 in /  0 mm
23:34 45.5 °F /  7.5 °C 39.0 °F /  3.9 °C 29.85 in /  1010.7 hPa Calm     78 % 0.00 in /  0 mm
23:39 45.0 °F /  7.2 °C 38.9 °F /  3.8 °C 29.85 in /  1010.7 hPa Calm     79 % 0.00 in /  0 mm
23:44 44.8 °F /  7.1 °C 39.0 °F /  3.9 °C 29.85 in /  1010.7 hPa Calm     80 % 0.00 in /  0 mm
23:50 45.0 °F /  7.2 °C 39.2 °F /  4 °C 29.85 in /  1010.7 hPa Calm     80 % 0.00 in /  0 mm
23:55 45.1 °F /  7.3 °C 39.0 °F /  3.9 °C 29.85 in /  1010.7 hPa Calm     79 % 0.00 in /  0 mm
Park Place, Exeter, Tulare County, California, USA
Compliments of Weather Underground - 2.75 mb